Time;durP1;ratioP1;P1;durP2;ratioP2;P2;SDS_P1;SDS_P2;PMS_P1;PMS_P2;Temp;Humidity;BMP_temperature;BMP_pressure;BME280_temperature;BME280_humidity;BME280_pressure;Samples;Min_cycle;Max_cycle;Signal;HPM_P1;HPM_P2
2022/03/25 00:00:42;;;;;;;29.42;15.55;;;10.90;53.60;;;;;;5077682;28;20030;-31
2022/03/25 00:03:08;;;;;;;25.08;13.95;;;10.80;53.60;;;;;;5077626;28;20038;-32
2022/03/25 00:05:34;;;;;;;24.38;13.95;;;10.70;53.60;;;;;;5095829;28;20472;-33
2022/03/25 00:08:00;;;;;;;29.30;15.82;;;10.70;53.70;;;;;;5095558;28;20080;-33
2022/03/25 00:10:26;;;;;;;25.38;15.52;;;10.70;53.70;;;;;;5095616;28;20027;-32
2022/03/25 00:12:51;;;;;;;32.38;15.35;;;10.60;53.80;;;;;;5095556;28;20486;-30
2022/03/25 00:15:18;;;;;;;28.48;15.25;;;10.50;53.90;;;;;;5095738;28;20024;-32
2022/03/25 00:17:44;;;;;;;29.73;16.08;;;10.40;54.00;;;;;;5095555;28;20361;-34
2022/03/25 00:20:09;;;;;;;28.98;16.80;;;10.40;54.10;;;;;;5095331;28;20035;-30
2022/03/25 00:22:35;;;;;;;30.33;17.30;;;10.30;54.20;;;;;;5095202;28;20435;-32
2022/03/25 00:25:03;;;;;;;31.52;16.35;;;10.30;54.30;;;;;;5095387;28;20103;-31
2022/03/25 00:27:28;;;;;;;28.67;16.55;;;10.20;54.40;;;;;;5095175;28;20023;-33
2022/03/25 00:29:54;;;;;;;29.42;16.38;;;10.10;54.50;;;;;;5095166;28;20143;-30
2022/03/25 00:32:21;;;;;;;32.92;18.73;;;10.00;54.60;;;;;;5095163;28;20030;-30
2022/03/25 00:34:46;;;;;;;30.42;18.00;;;10.00;54.90;;;;;;5094999;28;20028;-33
2022/03/25 00:37:12;;;;;;;32.58;18.95;;;9.90;55.10;;;;;;5095029;28;20077;-30
2022/03/25 00:39:38;;;;;;;33.70;18.08;;;9.80;55.30;;;;;;5094829;28;20017;-33
2022/03/25 00:42:05;;;;;;;34.80;19.25;;;9.70;55.40;;;;;;5094071;28;20016;-31
2022/03/25 00:44:31;;;;;;;35.25;19.63;;;9.60;55.70;;;;;;5094821;28;20016;-34
2022/03/25 00:46:57;;;;;;;34.85;19.58;;;9.60;55.90;;;;;;5094896;28;20547;-31
2022/03/25 00:49:23;;;;;;;37.53;19.63;;;9.50;56.00;;;;;;5094752;28;20097;-30
2022/03/25 00:51:48;;;;;;;35.10;20.60;;;9.50;56.30;;;;;;5094792;28;20031;-33
2022/03/25 00:54:14;;;;;;;36.50;20.60;;;9.40;56.40;;;;;;5095015;28;20028;-29
2022/03/25 00:56:40;;;;;;;39.35;21.13;;;9.40;56.60;;;;;;5076229;28;20075;-33
2022/03/25 00:59:06;;;;;;;37.10;21.30;;;9.40;56.90;;;;;;5076749;28;20476;-32
2022/03/25 01:01:32;;;;;;;40.95;21.38;;;9.30;56.80;;;;;;5094748;28;20470;-33
2022/03/25 01:03:57;;;;;;;42.75;22.85;;;9.30;57.10;;;;;;5094458;28;20060;-31
2022/03/25 01:06:24;;;;;;;37.25;22.63;;;9.30;57.20;;;;;;5094313;28;20047;-31
2022/03/25 01:08:50;;;;;;;42.30;23.27;;;9.30;57.40;;;;;;5094660;28;20510;-33
2022/03/25 01:11:16;;;;;;;40.00;23.23;;;9.20;57.50;;;;;;5094379;28;20051;-35
2022/03/25 01:13:42;;;;;;;38.33;21.58;;;9.20;57.50;;;;;;5094578;28;20116;-31
2022/03/25 01:16:08;;;;;;;39.42;23.02;;;9.20;57.70;;;;;;5094373;28;20129;-32
2022/03/25 01:18:34;;;;;;;41.97;23.15;;;9.20;57.90;;;;;;5094083;28;20089;-53
2022/03/25 01:21:00;;;;;;;40.67;22.17;;;9.10;57.90;;;;;;5094146;28;20031;-32
2022/03/25 01:23:26;;;;;;;36.83;20.88;;;9.10;58.10;;;;;;5094105;28;20028;-31
2022/03/25 01:25:52;;;;;;;37.95;21.83;;;9.10;58.10;;;;;;5094130;28;20408;-34
2022/03/25 01:28:18;;;;;;;38.08;22.23;;;9.10;58.20;;;;;;5094013;28;20020;-32
2022/03/25 01:30:44;;;;;;;38.40;22.20;;;9.00;58.20;;;;;;5094226;28;20182;-31
2022/03/25 01:33:10;;;;;;;43.22;21.85;;;9.00;58.30;;;;;;5093917;28;20066;-30
2022/03/25 01:35:36;;;;;;;41.30;22.92;;;9.00;58.40;;;;;;5094012;28;20020;-33
2022/03/25 01:38:02;;;;;;;39.55;22.52;;;9.00;58.70;;;;;;5093966;28;20027;-30
2022/03/25 01:40:28;;;;;;;37.85;21.73;;;9.00;58.80;;;;;;5093742;28;20111;-35
2022/03/25 01:42:53;;;;;;;37.63;21.65;;;8.90;58.80;;;;;;5093837;28;20098;-33
2022/03/25 01:45:30;;;;;;;36.40;21.77;;;8.90;58.90;;;;;;5094034;28;20032;-30
2022/03/25 01:47:56;;;;;;;40.53;23.02;;;8.90;59.10;;;;;;5075468;28;20024;-32
2022/03/25 01:50:21;;;;;;;42.13;22.98;;;8.80;59.10;;;;;;5093674;28;20471;-32
2022/03/25 01:52:51;;;;;;;38.95;22.08;;;8.80;59.20;;;;;;5093443;28;20111;-33
2022/03/25 01:55:21;;;;;;;39.30;22.58;;;8.80;59.30;;;;;;5093988;28;20028;-35
2022/03/25 01:57:48;;;;;;;42.30;23.83;;;8.80;59.30;;;;;;5093302;28;20044;-32
2022/03/25 02:00:15;;;;;;;44.25;23.25;;;8.80;59.30;;;;;;5093467;28;20065;-33
2022/03/25 02:02:41;;;;;;;39.20;23.27;;;8.80;59.40;;;;;;5093606;28;20369;-30
2022/03/25 02:05:07;;;;;;;43.25;24.33;;;8.80;59.40;;;;;;5093444;28;20024;-30
2022/03/25 02:07:32;;;;;;;40.55;23.20;;;8.80;59.40;;;;;;5093454;28;20142;-31
2022/03/25 02:09:59;;;;;;;37.60;20.52;;;8.80;59.30;;;;;;5093347;28;20031;-31
2022/03/25 02:12:25;;;;;;;40.47;22.63;;;8.80;59.20;;;;;;5093526;28;20031;-30
2022/03/25 02:14:51;;;;;;;36.58;20.17;;;8.80;59.20;;;;;;5093253;28;20477;-34
2022/03/25 02:17:16;;;;;;;37.10;21.20;;;8.80;59.00;;;;;;5093250;28;20049;-31
2022/03/25 02:19:42;;;;;;;40.80;23.13;;;8.80;59.00;;;;;;5093077;28;20035;-30
2022/03/25 02:22:08;;;;;;;38.70;23.35;;;8.80;59.30;;;;;;5093275;28;20025;-32
2022/03/25 02:24:34;;;;;;;42.95;24.80;;;8.80;60.20;;;;;;5093129;28;20384;-33
2022/03/25 02:27:02;;;;;;;40.08;24.65;;;8.70;59.90;;;;;;5093141;28;20078;-34
2022/03/25 02:29:28;;;;;;;42.42;24.58;;;8.70;60.10;;;;;;5093137;28;20099;-30
2022/03/25 02:31:53;;;;;;;39.38;22.75;;;8.70;60.10;;;;;;5092860;28;20433;-30
2022/03/25 02:34:19;;;;;;;43.55;23.83;;;8.70;60.10;;;;;;5092785;28;20055;-32
2022/03/25 02:36:46;;;;;;;41.53;23.80;;;8.60;60.20;;;;;;5093136;28;20020;-30
2022/03/25 02:39:13;;;;;;;40.83;22.17;;;8.60;60.40;;;;;;5093201;28;20027;-32
2022/03/25 02:41:39;;;;;;;40.55;24.23;;;8.60;60.40;;;;;;5093014;28;20020;-32
2022/03/25 02:44:05;;;;;;;43.20;25.98;;;8.60;60.70;;;;;;5092902;28;20020;-38
2022/03/25 02:46:31;;;;;;;42.67;25.30;;;8.60;60.90;;;;;;5074834;28;20027;-31
2022/03/25 02:48:56;;;;;;;45.92;26.55;;;8.50;61.10;;;;;;5092941;28;20020;-31
2022/03/25 02:51:22;;;;;;;46.25;26.95;;;8.50;61.30;;;;;;5092817;28;20029;-30
2022/03/25 02:53:48;;;;;;;49.35;27.25;;;8.40;61.50;;;;;;5074714;28;20035;-32
2022/03/25 02:56:14;;;;;;;45.35;25.58;;;8.40;61.70;;;;;;5092662;28;20084;-30
2022/03/25 02:58:40;;;;;;;48.60;25.60;;;8.40;61.70;;;;;;5092996;28;20016;-30
2022/03/25 03:01:08;;;;;;;42.17;24.60;;;8.40;61.80;;;;;;5092869;28;20125;-30
2022/03/25 03:03:34;;;;;;;44.45;25.50;;;8.40;61.80;;;;;;5093092;28;20098;-29
2022/03/25 03:06:00;;;;;;;42.97;25.30;;;8.40;61.80;;;;;;5096889;28;20062;-33
2022/03/25 03:08:27;;;;;;;41.85;24.13;;;8.40;61.80;;;;;;5096739;28;20031;-31
2022/03/25 03:10:53;;;;;;;41.45;25.23;;;8.40;61.90;;;;;;5096921;28;20020;-31
2022/03/25 03:13:20;;;;;;;44.38;25.50;;;8.40;62.00;;;;;;5078396;28;20016;-29
2022/03/25 03:15:47;;;;;;;49.08;25.80;;;8.40;62.10;;;;;;5096845;28;20032;-30
2022/03/25 03:18:12;;;;;;;44.05;26.40;;;8.40;62.20;;;;;;5096587;28;20031;-32
2022/03/25 03:20:38;;;;;;;48.25;26.17;;;8.40;62.40;;;;;;5096551;28;20473;-29
2022/03/25 03:23:05;;;;;;;43.70;26.35;;;8.40;62.40;;;;;;5096505;28;20020;-31
2022/03/25 03:25:31;;;;;;;44.08;26.50;;;8.40;62.50;;;;;;5096653;28;20020;-31
2022/03/25 03:27:57;;;;;;;46.65;27.20;;;8.40;62.60;;;;;;5096484;28;20451;-32
2022/03/25 03:30:23;;;;;;;45.00;26.73;;;8.30;62.50;;;;;;5096367;28;20023;-31
2022/03/25 03:32:54;;;;;;;45.30;27.83;;;8.30;62.60;;;;;;5096287;28;20027;-30
2022/03/25 03:35:20;;;;;;;46.22;26.48;;;8.30;62.70;;;;;;5096455;28;20104;-34
2022/03/25 03:37:46;;;;;;;42.13;25.48;;;8.40;62.80;;;;;;5096346;28;20367;-30
2022/03/25 03:40:14;;;;;;;39.58;25.40;;;8.40;62.80;;;;;;5096211;28;20074;-33
2022/03/25 03:42:40;;;;;;;46.40;27.17;;;8.30;62.90;;;;;;5096451;28;20028;-30
2022/03/25 03:45:08;;;;;;;46.20;28.83;;;8.40;63.00;;;;;;5096377;28;20487;-30
2022/03/25 03:47:34;;;;;;;51.22;28.98;;;8.30;63.00;;;;;;5077864;28;20020;-29
2022/03/25 03:50:00;;;;;;;51.40;30.42;;;8.30;63.10;;;;;;5096013;28;20315;-31
2022/03/25 03:52:26;;;;;;;53.70;31.17;;;8.30;63.50;;;;;;5095962;28;20028;-35
2022/03/25 03:54:52;;;;;;;52.45;30.48;;;8.20;63.80;;;;;;5095899;28;20052;-29
2022/03/25 03:57:17;;;;;;;54.15;31.48;;;8.10;64.00;;;;;;5077512;28;20153;-33
2022/03/25 03:59:43;;;;;;;52.35;29.52;;;8.00;64.20;;;;;;5095874;28;20028;-30
2022/03/25 04:02:09;;;;;;;55.33;30.85;;;8.00;64.40;;;;;;5095741;28;20035;-30
2022/03/25 04:04:35;;;;;;;52.45;31.58;;;7.90;64.50;;;;;;5095691;28;20075;-30
2022/03/25 04:07:02;;;;;;;54.20;31.70;;;8.00;64.60;;;;;;5095746;28;20021;-33
2022/03/25 04:09:27;;;;;;;53.80;32.53;;;7.90;64.70;;;;;;5095567;28;20024;-31
2022/03/25 04:11:54;;;;;;;51.00;31.13;;;7.90;65.10;;;;;;5095559;28;20028;-32
2022/03/25 04:14:20;;;;;;;52.67;31.80;;;7.90;65.30;;;;;;5095349;28;20028;-32
2022/03/25 04:16:46;;;;;;;51.88;30.60;;;7.80;65.30;;;;;;5095507;28;20028;-35
2022/03/25 04:19:12;;;;;;;53.63;32.17;;;7.80;65.40;;;;;;5095368;28;20024;-30
2022/03/25 04:21:38;;;;;;;52.22;30.05;;;7.80;65.40;;;;;;5095430;28;20020;-30
2022/03/25 04:24:04;;;;;;;55.95;32.42;;;7.90;65.50;;;;;;5095324;28;20096;-31
2022/03/25 04:26:30;;;;;;;49.40;30.17;;;7.90;65.60;;;;;;5095240;28;20038;-30
2022/03/25 04:28:55;;;;;;;53.10;30.83;;;7.80;65.60;;;;;;5095223;28;20375;-38
2022/03/25 04:31:21;;;;;;;51.08;30.10;;;7.80;65.60;;;;;;5095266;28;20028;-30
2022/03/25 04:33:46;;;;;;;50.30;29.83;;;7.90;65.70;;;;;;5095051;28;20032;-33
2022/03/25 04:36:13;;;;;;;55.78;32.90;;;7.80;65.70;;;;;;5095067;28;20024;-30
2022/03/25 04:38:38;;;;;;;54.33;33.05;;;7.80;65.80;;;;;;5094993;28;20028;-30
2022/03/25 04:41:04;;;;;;;56.08;32.60;;;7.70;66.00;;;;;;5095210;28;20066;-32
2022/03/25 04:43:30;;;;;;;59.83;34.15;;;7.70;66.40;;;;;;5094931;28;20024;-32
2022/03/25 04:45:56;;;;;;;55.63;32.25;;;7.60;66.50;;;;;;5094929;28;20020;-32
2022/03/25 04:48:21;;;;;;;54.10;31.70;;;7.60;66.70;;;;;;5094802;28;20051;-31
2022/03/25 04:50:47;;;;;;;57.95;33.40;;;7.50;66.80;;;;;;5094923;28;20070;-31
2022/03/25 04:53:12;;;;;;;52.78;31.65;;;7.50;67.00;;;;;;5094775;28;20091;-35
2022/03/25 04:55:38;;;;;;;52.85;32.10;;;7.50;67.00;;;;;;5094608;28;20039;-30
2022/03/25 04:58:04;;;;;;;56.25;32.10;;;7.40;67.20;;;;;;5076445;28;20040;-34
2022/03/25 05:00:29;;;;;;;56.63;33.05;;;7.40;67.50;;;;;;5094509;28;20128;-31
2022/03/25 05:02:55;;;;;;;62.90;35.00;;;7.40;67.50;;;;;;5094741;28;20066;-30
2022/03/25 05:05:21;;;;;;;56.05;34.25;;;7.40;67.50;;;;;;5094662;28;20051;-30
2022/03/25 05:07:50;;;;;;;55.38;32.90;;;7.30;67.80;;;;;;5094558;28;20020;-29
2022/03/25 05:10:15;;;;;;;58.70;33.85;;;7.30;67.80;;;;;;5094497;28;20020;-35
2022/03/25 05:12:42;;;;;;;61.15;32.95;;;7.20;67.80;;;;;;5094377;28;20024;-32
2022/03/25 05:15:09;;;;;;;61.85;35.80;;;7.20;68.00;;;;;;5094306;28;20103;-29
2022/03/25 05:17:34;;;;;;;63.75;35.20;;;7.20;68.40;;;;;;5094299;28;20024;-32
2022/03/25 05:20:05;;;;;;;59.55;34.55;;;7.10;68.50;;;;;;5094108;28;20073;-30
2022/03/25 05:22:30;;;;;;;57.97;33.63;;;7.10;68.70;;;;;;5094412;28;20097;-32
2022/03/25 05:24:56;;;;;;;62.22;33.90;;;7.10;68.70;;;;;;5094176;28;20079;-30
2022/03/25 05:27:21;;;;;;;67.43;37.53;;;7.10;69.00;;;;;;5093561;28;20020;-31
2022/03/25 05:29:47;;;;;;;60.58;36.33;;;7.10;69.20;;;;;;5094030;28;20103;-31
2022/03/25 05:32:13;;;;;;;61.75;35.67;;;7.10;69.30;;;;;;5094192;28;20020;-31
2022/03/25 05:34:39;;;;;;;58.75;34.20;;;7.10;69.40;;;;;;5093978;28;20024;-33
2022/03/25 05:37:04;;;;;;;60.10;35.42;;;7.10;69.40;;;;;;5075790;28;20028;-28
2022/03/25 05:39:30;;;;;;;57.50;31.98;;;7.10;69.40;;;;;;5093749;28;20024;-30
2022/03/25 05:41:56;;;;;;;55.85;32.20;;;7.10;69.40;;;;;;5093790;28;20495;-29
2022/03/25 05:44:21;;;;;;;64.75;37.35;;;7.10;69.40;;;;;;5093941;28;20061;-33
2022/03/25 05:46:47;;;;;;;63.58;36.80;;;7.10;69.70;;;;;;5093662;28;20439;-31
2022/03/25 05:49:13;;;;;;;67.38;38.50;;;7.10;70.00;;;;;;5093789;28;20024;-30
2022/03/25 05:51:38;;;;;;;68.10;38.60;;;7.00;70.30;;;;;;5093687;28;20028;-31
2022/03/25 05:54:04;;;;;;;65.43;37.58;;;7.00;70.80;;;;;;5075364;28;20067;-33
2022/03/25 05:56:29;;;;;;;67.22;39.95;;;6.90;70.90;;;;;;5093406;28;20051;-29
2022/03/25 05:58:55;;;;;;;58.72;34.88;;;6.90;71.20;;;;;;5093425;28;20064;-30
2022/03/25 06:01:21;;;;;;;63.03;37.67;;;6.80;71.40;;;;;;5093437;28;20024;-31
2022/03/25 06:03:46;;;;;;;62.20;35.28;;;6.90;71.40;;;;;;5093698;28;20400;-31
2022/03/25 06:06:12;;;;;;;65.47;37.70;;;6.90;71.30;;;;;;5093651;28;20487;-30
2022/03/25 06:08:38;;;;;;;60.50;35.88;;;6.90;71.30;;;;;;5093472;28;20529;-32
2022/03/25 06:11:03;;;;;;;59.60;34.55;;;6.90;71.20;;;;;;5093375;28;20027;-30
2022/03/25 06:13:30;;;;;;;60.17;33.63;;;7.00;71.20;;;;;;5093322;28;20032;-33
2022/03/25 06:15:56;;;;;;;60.33;33.88;;;7.00;71.10;;;;;;5093340;28;20024;-32
2022/03/25 06:18:22;;;;;;;58.90;34.90;;;7.00;71.00;;;;;;5093124;28;20028;-30
2022/03/25 06:20:48;;;;;;;56.33;33.08;;;7.10;71.10;;;;;;5093281;28;20024;-30
2022/03/25 06:23:14;;;;;;;56.53;35.10;;;7.10;71.00;;;;;;5093406;28;20074;-31
2022/03/25 06:25:43;;;;;;;59.90;35.05;;;7.20;71.00;;;;;;5093110;28;20028;-32
2022/03/25 06:28:09;;;;;;;60.15;35.05;;;7.20;70.90;;;;;;5093305;28;20111;-30
2022/03/25 06:30:36;;;;;;;56.25;32.00;;;7.30;71.00;;;;;;5093336;28;20202;-30
2022/03/25 06:33:04;;;;;;;54.25;31.17;;;7.30;70.80;;;;;;5093001;28;20434;-29
2022/03/25 06:35:30;;;;;;;50.50;31.02;;;7.40;70.70;;;;;;5092999;28;20024;-34
2022/03/25 06:37:56;;;;;;;51.80;30.55;;;7.50;70.60;;;;;;5092543;28;20369;-31
2022/03/25 06:40:22;;;;;;;54.55;30.35;;;7.60;70.50;;;;;;5092845;28;20012;-30
2022/03/25 06:42:49;;;;;;;59.67;32.72;;;7.60;70.30;;;;;;5092959;28;20008;-29
2022/03/25 06:45:17;;;;;;;50.17;31.02;;;7.60;70.20;;;;;;5092995;28;20021;-30
2022/03/25 06:47:43;;;;;;;52.65;31.13;;;7.70;70.10;;;;;;5092902;28;20114;-29
2022/03/25 06:50:13;;;;;;;51.17;30.05;;;7.70;70.00;;;;;;5092851;28;20028;-32
2022/03/25 06:52:39;;;;;;;53.97;31.35;;;7.80;69.90;;;;;;5092858;28;20020;-35
2022/03/25 06:55:05;;;;;;;53.97;31.55;;;7.90;69.90;;;;;;5093153;28;20035;-31
2022/03/25 06:57:31;;;;;;;52.20;31.00;;;7.90;69.80;;;;;;5092670;28;20109;-30
2022/03/25 06:59:56;;;;;;;51.28;30.83;;;7.90;69.70;;;;;;5092811;28;20025;-32
2022/03/25 07:02:22;;;;;;;53.75;33.17;;;7.90;69.60;;;;;;5092770;28;20027;-30
2022/03/25 07:04:48;;;;;;;57.25;32.35;;;8.00;69.60;;;;;;5092751;28;20024;-32
2022/03/25 07:07:18;;;;;;;56.95;32.58;;;8.00;69.60;;;;;;5092851;28;20056;-31
2022/03/25 07:09:44;;;;;;;58.80;33.58;;;8.00;69.60;;;;;;5092938;28;20024;-32
2022/03/25 07:12:10;;;;;;;59.53;34.88;;;8.00;69.60;;;;;;5092674;28;20032;-31
2022/03/25 07:14:36;;;;;;;59.25;33.38;;;8.10;69.60;;;;;;5092963;28;20023;-33
2022/03/25 07:17:02;;;;;;;53.38;32.72;;;8.10;69.50;;;;;;5092805;28;20028;-33
2022/03/25 07:19:27;;;;;;;55.65;32.40;;;8.20;69.50;;;;;;5092553;28;20024;-30
2022/03/25 07:21:53;;;;;;;53.20;32.38;;;8.30;69.40;;;;;;5092787;28;20348;-30
2022/03/25 07:24:20;;;;;;;57.28;33.40;;;8.30;69.30;;;;;;5092683;28;20095;-31
2022/03/25 07:26:46;;;;;;;56.42;32.22;;;8.40;69.10;;;;;;5092875;28;20020;-29
2022/03/25 07:29:11;;;;;;;52.63;31.67;;;8.40;69.10;;;;;;5092556;28;20024;-30
2022/03/25 07:31:37;;;;;;;50.55;30.80;;;8.40;69.00;;;;;;5092817;28;20051;-30
2022/03/25 07:34:03;;;;;;;58.33;34.28;;;8.50;69.00;;;;;;5092494;28;20016;-30
2022/03/25 07:36:29;;;;;;;54.90;33.72;;;8.50;68.90;;;;;;5092512;28;20418;-31
2022/03/25 07:38:55;;;;;;;52.88;31.85;;;8.50;68.80;;;;;;5092338;28;20120;-31
2022/03/25 07:41:21;;;;;;;56.22;32.83;;;8.60;68.80;;;;;;5092556;28;20016;-30
2022/03/25 07:43:46;;;;;;;51.55;31.48;;;8.60;68.70;;;;;;5092584;28;20095;-30
2022/03/25 07:46:12;;;;;;;50.55;30.77;;;8.70;68.60;;;;;;5092428;28;20051;-31
2022/03/25 07:48:38;;;;;;;52.60;31.60;;;8.80;68.50;;;;;;5092906;28;20491;-32
2022/03/25 07:51:04;;;;;;;54.42;33.38;;;8.90;68.40;;;;;;5095019;28;20031;-31
2022/03/25 07:53:32;;;;;;;55.42;34.00;;;8.90;68.30;;;;;;5096173;28;20409;-31
2022/03/25 07:55:58;;;;;;;54.40;32.63;;;8.90;68.20;;;;;;5095860;28;20048;-30
2022/03/25 07:58:23;;;;;;;52.88;32.35;;;9.00;68.10;;;;;;5095688;28;20532;-36
2022/03/25 08:00:50;;;;;;;50.97;31.92;;;9.10;68.00;;;;;;5095667;28;20035;-29
2022/03/25 08:03:16;;;;;;;54.38;31.63;;;9.10;67.90;;;;;;5095544;28;20161;-33
2022/03/25 08:05:43;;;;;;;59.45;33.10;;;9.20;67.70;;;;;;5077448;28;20488;-29
2022/03/25 08:08:09;;;;;;;56.10;32.50;;;9.20;67.60;;;;;;5095599;28;20099;-32
2022/03/25 08:10:36;;;;;;;54.13;32.03;;;9.30;67.50;;;;;;5095533;28;20498;-32
2022/03/25 08:13:03;;;;;;;52.45;31.55;;;9.40;67.30;;;;;;5095619;28;20020;-34
2022/03/25 08:15:30;;;;;;;54.55;31.90;;;9.40;67.20;;;;;;5095659;28;20453;-31
2022/03/25 08:18:01;;;;;;;50.15;31.48;;;9.50;67.70;;;;;;5095643;28;20019;-30
2022/03/25 08:20:37;;;;;;;50.53;31.60;;;9.60;66.80;;;;;;5095780;28;20020;-32
2022/03/25 08:23:05;;;;;;;51.85;31.88;;;9.60;66.70;;;;;;5095450;28;20573;-31
2022/03/25 08:28:16;;;;;;;44.78;27.90;;;9.80;66.40;;;;;;5095315;28;20078;-30
2022/03/25 08:30:43;;;;;;;48.17;29.08;;;10.00;66.20;;;;;;5094935;28;20461;-33
2022/03/25 08:33:10;;;;;;;51.85;30.02;;;10.00;65.80;;;;;;5094884;28;20119;-31
2022/03/25 08:35:37;;;;;;;53.35;30.85;;;10.10;65.60;;;;;;5095160;28;20027;-30
2022/03/25 08:38:04;;;;;;;47.53;29.60;;;10.20;65.30;;;;;;5094849;28;20422;-32
2022/03/25 08:40:31;;;;;;;54.47;34.42;;;10.40;65.00;;;;;;5094810;28;20107;-31
2022/03/25 08:42:57;;;;;;;52.78;33.25;;;10.40;64.50;;;;;;5076416;28;20023;-31
2022/03/25 08:45:23;;;;;;;50.05;29.00;;;10.50;64.10;;;;;;5094951;28;20464;-31
2022/03/25 08:47:48;;;;;;;43.67;26.30;;;10.60;64.00;;;;;;5095283;28;20020;-30
2022/03/25 08:50:16;;;;;;;44.72;27.38;;;10.60;63.80;;;;;;5094885;28;20510;-30
2022/03/25 08:52:43;;;;;;;47.55;28.60;;;10.70;63.60;;;;;;5094885;28;20384;-31
2022/03/25 08:55:10;;;;;;;43.53;26.73;;;10.80;63.20;;;;;;5094836;28;20071;-34
2022/03/25 08:57:37;;;;;;;47.15;29.35;;;10.80;63.00;;;;;;5094594;28;20043;-30
2022/03/25 09:00:11;;;;;;;49.88;31.45;;;10.90;62.60;;;;;;5094648;28;20020;-30
2022/03/25 09:02:38;;;;;;;49.72;30.35;;;10.90;62.30;;;;;;5093760;28;20020;-30
2022/03/25 09:05:04;;;;;;;49.10;29.58;;;11.00;61.80;;;;;;5094764;28;20032;-31
2022/03/25 09:07:30;;;;;;;49.67;30.63;;;11.10;61.40;;;;;;5094598;28;20022;-36
2022/03/25 09:09:56;;;;;;;47.15;29.65;;;11.10;60.80;;;;;;5094588;28;20031;-31
2022/03/25 09:12:22;;;;;;;47.42;28.83;;;11.20;60.80;;;;;;5094402;28;20027;-30
2022/03/25 09:14:48;;;;;;;46.35;28.88;;;11.30;60.80;;;;;;5094768;28;20022;-30
2022/03/25 09:17:14;;;;;;;45.75;28.35;;;11.40;60.60;;;;;;5094319;28;20425;-32
2022/03/25 09:19:39;;;;;;;42.03;27.38;;;11.40;60.50;;;;;;5094283;28;20032;-30
2022/03/25 09:22:05;;;;;;;48.75;28.25;;;11.50;60.30;;;;;;5094601;28;20024;-33
2022/03/25 09:24:31;;;;;;;48.90;28.63;;;11.60;60.00;;;;;;5094471;28;20375;-32
2022/03/25 09:26:56;;;;;;;43.45;26.75;;;11.70;59.90;;;;;;5094474;28;20024;-32
2022/03/25 09:29:22;;;;;;;45.17;28.02;;;11.80;59.80;;;;;;5094136;28;20407;-31
2022/03/25 09:31:48;;;;;;;42.63;26.92;;;11.90;59.50;;;;;;5094011;28;20016;-32
2022/03/25 09:36:57;;;;;;;44.90;28.75;;;12.10;58.50;;;;;;5094203;28;20061;-31
2022/03/25 09:39:23;;;;;;;42.70;27.13;;;12.10;58.10;;;;;;5094129;28;20099;-30
2022/03/25 09:41:50;;;;;;;48.50;27.38;;;12.20;57.80;;;;;;5093889;28;20035;-32
2022/03/25 09:44:16;;;;;;;44.72;27.63;;;12.30;57.70;;;;;;5093892;28;20039;-32
2022/03/25 09:46:43;;;;;;;50.42;29.73;;;12.30;57.20;;;;;;5093828;28;20395;-30
2022/03/25 09:49:12;;;;;;;44.88;28.30;;;12.40;56.60;;;;;;5093824;28;20026;-31
2022/03/25 09:51:40;;;;;;;45.22;26.98;;;12.50;56.70;;;;;;5093993;28;20438;-30
2022/03/25 09:54:08;;;;;;;44.92;27.15;;;12.60;56.50;;;;;;5093970;28;20097;-30
2022/03/25 09:56:34;;;;;;;48.15;29.35;;;12.60;55.90;;;;;;5093496;28;20101;-32
2022/03/25 09:59:00;;;;;;;47.80;28.90;;;12.70;55.60;;;;;;5093734;28;20036;-31
2022/03/25 10:01:26;;;;;;;54.35;30.60;;;12.80;55.40;;;;;;5093541;28;20099;-31
2022/03/25 10:03:51;;;;;;;51.95;29.98;;;12.80;55.20;;;;;;5093452;28;20059;-31
2022/03/25 10:06:18;;;;;;;53.78;30.38;;;12.90;55.30;;;;;;5075675;28;20520;-31
2022/03/25 10:08:53;;;;;;;50.90;29.60;;;13.00;55.20;;;;;;5093429;28;20052;-34
2022/03/25 10:11:30;;;;;;;51.00;29.55;;;13.00;55.10;;;;;;5075115;28;20024;-31
2022/03/25 10:14:19;;;;;;;47.42;27.33;;;13.10;55.20;;;;;;5093386;28;20024;-31
2022/03/25 10:16:50;;;;;;;43.35;26.98;;;13.20;55.30;;;;;;5093371;28;20031;-32
2022/03/25 10:19:21;;;;;;;48.70;28.45;;;13.30;55.20;;;;;;5093095;28;20111;-31
2022/03/25 10:21:52;;;;;;;45.42;26.98;;;13.30;55.20;;;;;;5093508;28;20020;-30
2022/03/25 10:24:34;;;;;;;42.13;25.77;;;13.40;55.30;;;;;;5075089;28;20054;-32
2022/03/25 10:27:05;;;;;;;35.05;21.63;;;13.50;55.30;;;;;;5093232;28;20103;-33
2022/03/25 10:29:30;;;;;;;34.70;21.52;;;13.70;55.20;;;;;;5092935;28;20115;-30
2022/03/25 10:32:09;;;;;;;34.63;22.52;;;13.70;55.10;;;;;;5093084;28;20543;-34
2022/03/25 10:34:39;;;;;;;34.50;20.58;;;13.90;55.10;;;;;;5093229;28;20104;-30
2022/03/25 10:37:07;;;;;;;37.05;22.95;;;14.10;55.00;;;;;;5093105;28;20016;-32
2022/03/25 10:39:33;;;;;;;34.80;21.90;;;14.10;54.70;;;;;;5093122;28;20020;-33
2022/03/25 10:42:01;;;;;;;36.35;23.83;;;14.20;54.50;;;;;;5093042;28;20472;-36
2022/03/25 10:44:43;;;;;;;35.63;23.98;;;14.30;54.30;;;;;;5093074;28;20492;-31
2022/03/25 10:47:21;;;;;;;42.83;26.05;;;14.30;53.90;;;;;;5093015;28;20028;-30
2022/03/25 10:49:47;;;;;;;45.50;25.52;;;14.40;53.80;;;;;;5093005;28;20024;-31
2022/03/25 10:52:20;;;;;;;40.47;24.60;;;14.40;53.70;;;;;;5074890;28;20395;-30
2022/03/25 10:54:46;;;;;;;40.53;24.33;;;14.40;53.60;;;;;;5093190;28;20107;-31
2022/03/25 10:57:11;;;;;;;39.38;24.58;;;14.50;53.40;;;;;;5092854;28;20476;-32
2022/03/25 10:59:37;;;;;;;41.45;24.27;;;14.40;53.50;;;;;;5093084;28;20028;-32
2022/03/25 11:02:07;;;;;;;31.80;20.85;;;14.50;53.40;;;;;;5092950;28;20046;-30
2022/03/25 11:04:34;;;;;;;36.47;22.75;;;14.60;53.50;;;;;;5092893;28;20028;-36
2022/03/25 11:07:03;;;;;;;37.53;22.65;;;14.70;53.50;;;;;;5092946;28;20111;-32
2022/03/25 11:09:30;;;;;;;36.30;22.42;;;14.80;53.30;;;;;;5092838;28;20024;-32
2022/03/25 11:11:58;;;;;;;29.73;19.80;;;14.90;53.20;;;;;;5092706;28;20028;-33
2022/03/25 11:14:24;;;;;;;35.42;21.90;;;15.00;53.10;;;;;;5092810;28;20507;-31
2022/03/25 11:17:01;;;;;;;34.20;21.67;;;15.10;53.00;;;;;;5092852;28;20028;-32
2022/03/25 11:19:28;;;;;;;33.55;20.17;;;15.10;52.90;;;;;;5092604;28;20548;-31
2022/03/25 11:21:55;;;;;;;32.83;20.98;;;15.20;53.00;;;;;;5092921;28;20051;-30
2022/03/25 11:24:36;;;;;;;35.88;20.95;;;15.40;53.00;;;;;;5092879;28;20031;-30
2022/03/25 11:27:28;;;;;;;32.40;21.05;;;15.50;52.80;;;;;;5096493;28;20031;-31
2022/03/25 11:30:13;;;;;;;32.42;22.00;;;15.60;52.70;;;;;;5066855;28;20055;-30
2022/03/25 11:32:57;;;;;;;34.72;23.25;;;15.70;52.50;;;;;;5096509;28;20169;-31
2022/03/25 11:35:24;;;;;;;29.23;20.42;;;15.70;52.40;;;;;;5096330;28;20043;-30
2022/03/25 11:38:09;;;;;;;31.75;19.45;;;15.70;52.30;;;;;;5096625;28;20090;-31
2022/03/25 11:40:36;;;;;;;29.98;19.83;;;15.80;52.20;;;;;;5096180;28;20024;-33
2022/03/25 11:43:22;;;;;;;27.70;18.40;;;15.80;52.10;;;;;;5096471;28;20032;-31
2022/03/25 11:46:00;;;;;;;30.85;19.73;;;16.00;52.10;;;;;;5096291;28;20013;-31
2022/03/25 11:48:25;;;;;;;24.90;16.77;;;16.10;51.90;;;;;;5095959;28;20055;-35
2022/03/25 11:50:52;;;;;;;31.10;19.77;;;16.30;51.80;;;;;;5095955;28;20031;-30
2022/03/25 11:53:22;;;;;;;30.73;19.30;;;16.50;52.30;;;;;;5096020;28;20104;-32
2022/03/25 11:56:11;;;;;;;33.45;20.70;;;16.60;51.70;;;;;;5095946;28;20044;-31
2022/03/25 11:58:54;;;;;;;33.28;20.67;;;16.70;51.10;;;;;;5095936;28;20078;-31
2022/03/25 12:01:21;;;;;;;32.50;21.17;;;16.70;51.10;;;;;;5095605;28;20085;-32
2022/03/25 12:03:53;;;;;;;31.75;19.88;;;16.80;50.80;;;;;;5077433;28;20158;-33
2022/03/25 12:06:58;;;;;;;28.33;18.42;;;16.80;50.70;;;;;;5095790;28;20024;-31
2022/03/25 12:09:36;;;;;;;31.17;20.38;;;16.90;50.70;;;;;;5057566;28;20036;-36
2022/03/25 12:12:03;;;;;;;28.65;19.38;;;17.00;50.70;;;;;;5095745;28;20453;-31
2022/03/25 12:14:31;;;;;;;30.48;20.60;;;17.10;50.90;;;;;;5095387;28;20103;-35
2022/03/25 12:16:59;;;;;;;30.77;20.05;;;17.20;51.20;;;;;;5095217;28;20035;-33
2022/03/25 12:19:30;;;;;;;34.63;20.15;;;17.30;50.70;;;;;;5095096;28;20074;-32
2022/03/25 12:22:23;;;;;;;31.48;20.15;;;17.40;50.50;;;;;;5095149;28;20046;-33
2022/03/25 12:24:51;;;;;;;30.48;20.08;;;17.40;50.40;;;;;;5077836;28;20032;-32
2022/03/25 12:27:17;;;;;;;26.58;17.60;;;17.40;50.70;;;;;;5095059;28;20077;-34
2022/03/25 12:29:51;;;;;;;24.10;16.30;;;17.50;50.50;;;;;;5095007;28;20028;-33
2022/03/25 12:32:19;;;;;;;25.13;17.35;;;17.60;50.70;;;;;;5095245;28;20149;-31
2022/03/25 12:35:08;;;;;;;28.13;19.83;;;17.60;50.70;;;;;;5095476;28;20030;-31
2022/03/25 12:37:55;;;;;;;24.77;16.88;;;17.70;50.60;;;;;;5094096;28;20476;-31
2022/03/25 12:40:27;;;;;;;22.88;15.68;;;17.80;50.80;;;;;;5094855;28;20035;-35